sensor_id;sensor_type;location;lat;lon;timestamp;pressure;altitude;pressure_sealevel;temperature
24714;BMP280;12820;51.580;5.010;2022-12-13T00:01:36;101290.97;;;-0.45
24714;BMP280;12820;51.580;5.010;2022-12-13T00:06:38;101285.94;;;-0.48
24714;BMP280;12820;51.580;5.010;2022-12-13T00:11:40;101289.97;;;-0.50
24714;BMP280;12820;51.580;5.010;2022-12-13T00:16:47;101276.69;;;-0.53
24714;BMP280;12820;51.580;5.010;2022-12-13T00:21:49;101270.06;;;-0.54
24714;BMP280;12820;51.580;5.010;2022-12-13T00:26:53;101274.09;;;-0.56
24714;BMP280;12820;51.580;5.010;2022-12-13T00:31:56;101273.22;;;-0.58
24714;BMP280;12820;51.580;5.010;2022-12-13T00:37:02;101269.84;;;-0.60
24714;BMP280;12820;51.580;5.010;2022-12-13T00:42:05;101259.09;;;-0.62
24714;BMP280;12820;51.580;5.010;2022-12-13T00:47:07;101261.44;;;-0.65
24714;BMP280;12820;51.580;5.010;2022-12-13T00:52:09;101259.72;;;-0.66
24714;BMP280;12820;51.580;5.010;2022-12-13T00:57:11;101249.78;;;-0.69
24714;BMP280;12820;51.580;5.010;2022-12-13T01:02:13;101244.72;;;-0.71
24714;BMP280;12820;51.580;5.010;2022-12-13T01:07:15;101247.13;;;-0.73
24714;BMP280;12820;51.580;5.010;2022-12-13T01:12:17;101251.22;;;-0.73
24714;BMP280;12820;51.580;5.010;2022-12-13T01:17:19;101244.50;;;-0.77
24714;BMP280;12820;51.580;5.010;2022-12-13T01:22:22;101239.44;;;-0.80
24714;BMP280;12820;51.580;5.010;2022-12-13T01:27:25;101236.09;;;-0.82
24714;BMP280;12820;51.580;5.010;2022-12-13T01:32:27;101236.09;;;-0.82
24714;BMP280;12820;51.580;5.010;2022-12-13T01:37:29;101239.34;;;-0.83
24714;BMP280;12820;51.580;5.010;2022-12-13T01:42:38;101243.38;;;-0.85
24714;BMP280;12820;51.580;5.010;2022-12-13T01:47:47;101245.72;;;-0.88
24714;BMP280;12820;51.580;5.010;2022-12-13T01:52:53;101243.94;;;-0.92
24714;BMP280;12820;51.580;5.010;2022-12-13T01:58:02;101243.03;;;-0.94
24714;BMP280;12820;51.580;5.010;2022-12-13T02:03:05;101240.53;;;-0.95
24714;BMP280;12820;51.580;5.010;2022-12-13T02:08:10;101242.03;;;-0.99
24714;BMP280;12820;51.580;5.010;2022-12-13T02:13:14;101242.84;;;-1.00
24714;BMP280;12820;51.580;5.010;2022-12-13T02:18:26;101237.78;;;-1.03
24714;BMP280;12820;51.580;5.010;2022-12-13T02:34:38;101230.09;;;-1.10
24714;BMP280;12820;51.580;5.010;2022-12-13T02:40:28;101228.41;;;-1.11
24714;BMP280;12820;51.580;5.010;2022-12-13T02:45:49;101218.47;;;-1.12
24714;BMP280;12820;51.580;5.010;2022-12-13T02:50:52;101217.59;;;-1.14
24714;BMP280;12820;51.580;5.010;2022-12-13T02:55:54;101226.56;;;-1.16
24714;BMP280;12820;51.580;5.010;2022-12-13T03:06:53;101215.75;;;-1.20
24714;BMP280;12820;51.580;5.010;2022-12-13T03:17:27;101211.53;;;-1.22
24714;BMP280;12820;51.580;5.010;2022-12-13T03:22:33;101211.53;;;-1.22
24714;BMP280;12820;51.580;5.010;2022-12-13T03:27:35;101216.47;;;-1.22
24714;BMP280;12820;51.580;5.010;2022-12-13T03:32:37;101210.75;;;-1.21
24714;BMP280;12820;51.580;5.010;2022-12-13T03:37:39;101211.66;;;-1.19
24714;BMP280;12820;51.580;5.010;2022-12-13T03:42:41;101209.97;;;-1.20
24714;BMP280;12820;51.580;5.010;2022-12-13T03:47:43;101208.34;;;-1.20
24714;BMP280;12820;51.580;5.010;2022-12-13T03:52:45;101194.41;;;-1.19
24714;BMP280;12820;51.580;5.010;2022-12-13T03:57:48;101207.50;;;-1.20
24714;BMP280;12820;51.580;5.010;2022-12-13T04:02:50;101206.72;;;-1.19
24714;BMP280;12820;51.580;5.010;2022-12-13T04:07:53;101208.38;;;-1.18
24714;BMP280;12820;51.580;5.010;2022-12-13T04:13:02;101208.28;;;-1.21
24714;BMP280;12820;51.580;5.010;2022-12-13T04:18:22;101204.19;;;-1.21
24714;BMP280;12820;51.580;5.010;2022-12-13T04:23:24;101199.09;;;-1.25
24714;BMP280;12820;51.580;5.010;2022-12-13T04:28:26;101194.84;;;-1.29
24714;BMP280;12820;51.580;5.010;2022-12-13T04:33:28;101192.31;;;-1.30
24714;BMP280;12820;51.580;5.010;2022-12-13T04:38:33;101203.00;;;-1.30
24714;BMP280;12820;51.580;5.010;2022-12-13T04:43:35;101189.78;;;-1.32
24714;BMP280;12820;51.580;5.010;2022-12-13T04:48:37;101186.44;;;-1.34
24714;BMP280;12820;51.580;5.010;2022-12-13T04:53:40;101192.13;;;-1.35
24714;BMP280;12820;51.580;5.010;2022-12-13T04:58:42;101190.38;;;-1.37
24714;BMP280;12820;51.580;5.010;2022-12-13T05:03:44;101186.19;;;-1.40
24714;BMP280;12820;51.580;5.010;2022-12-13T05:08:46;101183.66;;;-1.41
24714;BMP280;12820;51.580;5.010;2022-12-13T05:13:49;101177.84;;;-1.43
24714;BMP280;12820;51.580;5.010;2022-12-13T05:18:51;101176.09;;;-1.45
24714;BMP280;12820;51.580;5.010;2022-12-13T05:23:53;101167.16;;;-1.43
24714;BMP280;12820;51.580;5.010;2022-12-13T05:28:56;101167.16;;;-1.43
24714;BMP280;12820;51.580;5.010;2022-12-13T05:33:58;101165.41;;;-1.46
24714;BMP280;12820;51.580;5.010;2022-12-13T05:39:02;101167.81;;;-1.47
24714;BMP280;12820;51.580;5.010;2022-12-13T05:44:04;101164.44;;;-1.49
24714;BMP280;12820;51.580;5.010;2022-12-13T05:49:06;101172.63;;;-1.50
24714;BMP280;12820;51.580;5.010;2022-12-13T05:54:08;101160.13;;;-1.55
24714;BMP280;12820;51.580;5.010;2022-12-13T05:59:11;101163.34;;;-1.57
24714;BMP280;12820;51.580;5.010;2022-12-13T06:04:13;101165.66;;;-1.60
24714;BMP280;12820;51.580;5.010;2022-12-13T06:09:24;101166.44;;;-1.61
24714;BMP280;12820;51.580;5.010;2022-12-13T06:14:26;101169.63;;;-1.63
24714;BMP280;12820;51.580;5.010;2022-12-13T06:19:28;101175.28;;;-1.66
24714;BMP280;12820;51.580;5.010;2022-12-13T06:24:30;101168.69;;;-1.67
24714;BMP280;12820;51.580;5.010;2022-12-13T06:29:32;101171.94;;;-1.68
24714;BMP280;12820;51.580;5.010;2022-12-13T06:34:35;101171.78;;;-1.71
24714;BMP280;12820;51.580;5.010;2022-12-13T06:39:37;101168.44;;;-1.73
24714;BMP280;12820;51.580;5.010;2022-12-13T06:44:40;101157.69;;;-1.75
24714;BMP280;12820;51.580;5.010;2022-12-13T06:49:42;101151.03;;;-1.77
24714;BMP280;12820;51.580;5.010;2022-12-13T06:54:46;101152.56;;;-1.79
24714;BMP280;12820;51.580;5.010;2022-12-13T06:59:48;101155.00;;;-1.80
24714;BMP280;12820;51.580;5.010;2022-12-13T07:04:50;101154.09;;;-1.82
24714;BMP280;12820;51.580;5.010;2022-12-13T07:09:52;101154.00;;;-1.85
24714;BMP280;12820;51.580;5.010;2022-12-13T07:14:54;101153.06;;;-1.87
24714;BMP280;12820;51.580;5.010;2022-12-13T07:19:56;101149.00;;;-1.87
24714;BMP280;12820;51.580;5.010;2022-12-13T07:25:03;101156.31;;;-1.88
24714;BMP280;12820;51.580;5.010;2022-12-13T07:30:06;101156.19;;;-1.91
24714;BMP280;12820;51.580;5.010;2022-12-13T07:35:08;101159.44;;;-1.92
24714;BMP280;12820;51.580;5.010;2022-12-13T07:40:10;101169.28;;;-1.92
24714;BMP280;12820;51.580;5.010;2022-12-13T07:45:12;101171.75;;;-1.92
24714;BMP280;12820;51.580;5.010;2022-12-13T07:50:15;101167.75;;;-1.90
24714;BMP280;12820;51.580;5.010;2022-12-13T07:55:26;101174.47;;;-1.86
24714;BMP280;12820;51.580;5.010;2022-12-13T08:00:41;101166.28;;;-1.85
24714;BMP280;12820;51.580;5.010;2022-12-13T08:05:47;101169.66;;;-1.83
24714;BMP280;12820;51.580;5.010;2022-12-13T08:10:49;101175.59;;;-1.78
24714;BMP280;12820;51.580;5.010;2022-12-13T08:15:57;101181.47;;;-1.75
24714;BMP280;12820;51.580;5.010;2022-12-13T08:21:05;101185.78;;;-1.70
24714;BMP280;12820;51.580;5.010;2022-12-13T08:26:27;101184.41;;;-1.63
24714;BMP280;12820;51.580;5.010;2022-12-13T08:31:30;101182.22;;;-1.56
24714;BMP280;12820;51.580;5.010;2022-12-13T08:36:35;101192.50;;;-1.46
24714;BMP280;12820;51.580;5.010;2022-12-13T08:41:37;101181.38;;;-1.37
24714;BMP280;12820;51.580;5.010;2022-12-13T08:46:40;101188.41;;;-1.25
24714;BMP280;12820;51.580;5.010;2022-12-13T08:51:42;101196.97;;;-1.16
24714;BMP280;12820;51.580;5.010;2022-12-13T08:56:44;101190.03;;;-1.05
24714;BMP280;12820;51.580;5.010;2022-12-13T09:01:46;101189.75;;;-0.90
24714;BMP280;12820;51.580;5.010;2022-12-13T09:06:55;101186.13;;;-0.77
24714;BMP280;12820;51.580;5.010;2022-12-13T09:12:02;101194.03;;;-0.64
24714;BMP280;12820;51.580;5.010;2022-12-13T09:17:24;101199.34;;;-0.52
24714;BMP280;12820;51.580;5.010;2022-12-13T09:22:27;101208.13;;;-0.37
24714;BMP280;12820;51.580;5.010;2022-12-13T09:27:34;101197.91;;;-0.24
24714;BMP280;12820;51.580;5.010;2022-12-13T09:32:41;101189.19;;;-0.14
24714;BMP280;12820;51.580;5.010;2022-12-13T09:37:44;101183.13;;;0.01
24714;BMP280;12820;51.580;5.010;2022-12-13T09:42:49;101183.53;;;0.13
24714;BMP280;12820;51.580;5.010;2022-12-13T09:48:16;101179.81;;;0.25
24714;BMP280;12820;51.580;5.010;2022-12-13T09:53:23;101176.09;;;0.37
24714;BMP280;12820;51.580;5.010;2022-12-13T09:58:34;101171.63;;;0.52
24714;BMP280;12820;51.580;5.010;2022-12-13T10:03:40;101172.91;;;0.67
24714;BMP280;12820;51.580;5.010;2022-12-13T10:08:48;101174.31;;;0.85
24714;BMP280;12820;51.580;5.010;2022-12-13T10:14:13;101167.41;;;1.03
24714;BMP280;12820;51.580;5.010;2022-12-13T10:19:25;101171.16;;;1.18
24714;BMP280;12820;51.580;5.010;2022-12-13T10:24:48;101155.88;;;1.32
24714;BMP280;12820;51.580;5.010;2022-12-13T10:30:08;101143.72;;;1.41
24714;BMP280;12820;51.580;5.010;2022-12-13T10:35:21;101143.06;;;1.47
24714;BMP280;12820;51.580;5.010;2022-12-13T10:40:35;101138.28;;;1.53
24714;BMP280;12820;51.580;5.010;2022-12-13T10:45:37;101124.50;;;1.62
24714;BMP280;12820;51.580;5.010;2022-12-13T10:50:39;101128.19;;;1.77
24714;BMP280;12820;51.580;5.010;2022-12-13T10:55:41;101120.38;;;1.94
24714;BMP280;12820;51.580;5.010;2022-12-13T11:00:45;101106.84;;;2.15
24714;BMP280;12820;51.580;5.010;2022-12-13T11:06:01;101113.97;;;2.37
24714;BMP280;12820;51.580;5.010;2022-12-13T11:11:05;101088.78;;;2.55
24714;BMP280;12820;51.580;5.010;2022-12-13T11:16:26;101106.41;;;2.68
24714;BMP280;12820;51.580;5.010;2022-12-13T11:21:33;101097.50;;;2.78
24714;BMP280;12820;51.580;5.010;2022-12-13T11:26:37;101086.91;;;2.84
24714;BMP280;12820;51.580;5.010;2022-12-13T11:37:19;101088.81;;;2.97
24714;BMP280;12820;51.580;5.010;2022-12-13T11:43:04;101065.84;;;3.07
24714;BMP280;12820;51.580;5.010;2022-12-13T11:48:05;101060.38;;;3.22
24714;BMP280;12820;51.580;5.010;2022-12-13T11:58:26;101041.78;;;3.48
24714;BMP280;12820;51.580;5.010;2022-12-13T12:04:00;101043.84;;;3.72
24714;BMP280;12820;51.580;5.010;2022-12-13T12:09:14;101028.53;;;3.98
24714;BMP280;12820;51.580;5.010;2022-12-13T12:14:34;101028.81;;;4.17
24714;BMP280;12820;51.580;5.010;2022-12-13T12:19:39;101033.84;;;4.21
24714;BMP280;12820;51.580;5.010;2022-12-13T12:40:59;101032.03;;;4.13
24714;BMP280;12820;51.580;5.010;2022-12-13T12:52:18;101025.38;;;4.07
24714;BMP280;12820;51.580;5.010;2022-12-13T12:57:35;101017.03;;;4.06
24714;BMP280;12820;51.580;5.010;2022-12-13T13:02:46;101016.19;;;4.05
24714;BMP280;12820;51.580;5.010;2022-12-13T13:07:57;101017.06;;;4.07
24714;BMP280;12820;51.580;5.010;2022-12-13T13:13:00;101015.38;;;4.06
24714;BMP280;12820;51.580;5.010;2022-12-13T13:18:42;101021.16;;;4.05
24714;BMP280;12820;51.580;5.010;2022-12-13T13:23:45;101018.59;;;3.99
24714;BMP280;12820;51.580;5.010;2022-12-13T13:28:48;101008.56;;;3.93
24714;BMP280;12820;51.580;5.010;2022-12-13T13:33:50;101009.28;;;3.87
24714;BMP280;12820;51.580;5.010;2022-12-13T13:38:55;100995.09;;;3.80
24714;BMP280;12820;51.580;5.010;2022-12-13T13:44:30;100992.47;;;3.71
24714;BMP280;12820;51.580;5.010;2022-12-13T13:49:32;100989.88;;;3.64
24714;BMP280;12820;51.580;5.010;2022-12-13T13:54:59;100971.53;;;3.57
24714;BMP280;12820;51.580;5.010;2022-12-13T14:00:10;100983.03;;;3.51
24714;BMP280;12820;51.580;5.010;2022-12-13T14:27:18;100955.34;;;3.29
24714;BMP280;12820;51.580;5.010;2022-12-13T14:32:25;100960.28;;;3.26
24714;BMP280;12820;51.580;5.010;2022-12-13T14:37:33;100946.94;;;3.23
24714;BMP280;12820;51.580;5.010;2022-12-13T14:42:40;100949.34;;;3.18
24714;BMP280;12820;51.580;5.010;2022-12-13T14:47:50;100937.53;;;3.54
24714;BMP280;12820;51.580;5.010;2022-12-13T14:52:54;100919.06;;;3.93
24714;BMP280;12820;51.580;5.010;2022-12-13T14:57:58;100927.31;;;3.91
24714;BMP280;12820;51.580;5.010;2022-12-13T15:03:03;100930.34;;;3.71
24714;BMP280;12820;51.580;5.010;2022-12-13T15:08:09;100919.34;;;3.54
24714;BMP280;12820;51.580;5.010;2022-12-13T15:18:31;100900.59;;;3.23
24714;BMP280;12820;51.580;5.010;2022-12-13T15:23:44;100887.16;;;3.10
24714;BMP280;12820;51.580;5.010;2022-12-13T15:29:03;100894.41;;;2.98
24714;BMP280;12820;51.580;5.010;2022-12-13T15:39:36;100887.44;;;2.78
24714;BMP280;12820;51.580;5.010;2022-12-13T15:44:44;100888.13;;;2.70
24714;BMP280;12820;51.580;5.010;2022-12-13T15:50:00;100891.28;;;2.63
24714;BMP280;12820;51.580;5.010;2022-12-13T16:05:33;100887.59;;;2.44
24714;BMP280;12820;51.580;5.010;2022-12-13T16:10:36;100886.69;;;2.39
24714;BMP280;12820;51.580;5.010;2022-12-13T16:15:49;100888.28;;;2.35
24714;BMP280;12820;51.580;5.010;2022-12-13T16:20:51;100879.91;;;2.30
24714;BMP280;12820;51.580;5.010;2022-12-13T16:25:53;100880.69;;;2.28
24714;BMP280;12820;51.580;5.010;2022-12-13T16:31:11;100876.47;;;2.23
24714;BMP280;12820;51.580;5.010;2022-12-13T16:36:16;100871.41;;;2.18
24714;BMP280;12820;51.580;5.010;2022-12-13T16:41:18;100877.19;;;2.17
24714;BMP280;12820;51.580;5.010;2022-12-13T16:46:23;100874.63;;;2.14
24714;BMP280;12820;51.580;5.010;2022-12-13T16:51:45;100864.66;;;2.12
24714;BMP280;12820;51.580;5.010;2022-12-13T16:56:50;100862.16;;;2.09
24714;BMP280;12820;51.580;5.010;2022-12-13T17:01:53;100867.09;;;2.09
24714;BMP280;12820;51.580;5.010;2022-12-13T17:06:56;100853.78;;;2.05
24714;BMP280;12820;51.580;5.010;2022-12-13T17:11:58;100862.03;;;2.03
24714;BMP280;12820;51.580;5.010;2022-12-13T17:17:00;100863.63;;;2.01
24714;BMP280;12820;51.580;5.010;2022-12-13T17:22:02;100860.28;;;1.99
24714;BMP280;12820;51.580;5.010;2022-12-13T17:27:05;100861.06;;;1.96
24714;BMP280;12820;51.580;5.010;2022-12-13T17:32:07;100853.56;;;1.95
24714;BMP280;12820;51.580;5.010;2022-12-13T17:37:09;100854.38;;;1.93
24714;BMP280;12820;51.580;5.010;2022-12-13T17:42:11;100845.34;;;1.96
24714;BMP280;12820;51.580;5.010;2022-12-13T17:47:14;100848.63;;;1.94
24714;BMP280;12820;51.580;5.010;2022-12-13T17:52:16;100847.72;;;1.92
24714;BMP280;12820;51.580;5.010;2022-12-13T17:57:18;100855.13;;;1.90
24714;BMP280;12820;51.580;5.010;2022-12-13T18:02:20;100846.00;;;1.88
24714;BMP280;12820;51.580;5.010;2022-12-13T18:07:23;100841.00;;;1.85
24714;BMP280;12820;51.580;5.010;2022-12-13T18:12:26;100835.22;;;1.84
24714;BMP280;12820;51.580;5.010;2022-12-13T18:17:29;100833.53;;;1.83
24714;BMP280;12820;51.580;5.010;2022-12-13T18:22:58;100841.75;;;1.82
24714;BMP280;12820;51.580;5.010;2022-12-13T18:28:00;100840.09;;;1.81
24714;BMP280;12820;51.580;5.010;2022-12-13T18:33:04;100814.47;;;1.81
24714;BMP280;12820;51.580;5.010;2022-12-13T18:38:06;100812.00;;;1.79
24714;BMP280;12820;51.580;5.010;2022-12-13T18:43:09;100810.31;;;1.78
24714;BMP280;12820;51.580;5.010;2022-12-13T18:48:11;100806.19;;;1.79
24714;BMP280;12820;51.580;5.010;2022-12-13T18:53:13;100803.69;;;1.77
24714;BMP280;12820;51.580;5.010;2022-12-13T18:58:15;100800.34;;;1.77
24714;BMP280;12820;51.580;5.010;2022-12-13T19:03:17;100798.69;;;1.76
24714;BMP280;12820;51.580;5.010;2022-12-13T19:08:20;100787.97;;;1.77
24714;BMP280;12820;51.580;5.010;2022-12-13T19:13:28;100786.28;;;1.76
24714;BMP280;12820;51.580;5.010;2022-12-13T19:18:31;100781.34;;;1.76
24714;BMP280;12820;51.580;5.010;2022-12-13T19:23:33;100771.44;;;1.76
24714;BMP280;12820;51.580;5.010;2022-12-13T19:28:36;100772.28;;;1.77
24714;BMP280;12820;51.580;5.010;2022-12-13T19:34:06;100775.53;;;1.76
24714;BMP280;12820;51.580;5.010;2022-12-13T19:39:16;100758.22;;;1.76
24714;BMP280;12820;51.580;5.010;2022-12-13T19:44:18;100758.22;;;1.76
24714;BMP280;12820;51.580;5.010;2022-12-13T19:49:20;100749.97;;;1.75
24714;BMP280;12820;51.580;5.010;2022-12-13T19:54:22;100740.06;;;1.75
24714;BMP280;12820;51.580;5.010;2022-12-13T19:59:26;100730.97;;;1.76
24714;BMP280;12820;51.580;5.010;2022-12-13T20:04:28;100724.38;;;1.75
24714;BMP280;12820;51.580;5.010;2022-12-13T20:09:31;100721.03;;;1.74
24714;BMP280;12820;51.580;5.010;2022-12-13T20:14:33;100715.25;;;1.74
24714;BMP280;12820;51.580;5.010;2022-12-13T20:19:36;100711.97;;;1.75
24714;BMP280;12820;51.580;5.010;2022-12-13T20:24:38;100698.75;;;1.74
24714;BMP280;12820;51.580;5.010;2022-12-13T20:29:40;100692.13;;;1.73
24714;BMP280;12820;51.580;5.010;2022-12-13T20:34:49;100687.13;;;1.72
24714;BMP280;12820;51.580;5.010;2022-12-13T20:39:58;100682.19;;;1.72
24714;BMP280;12820;51.580;5.010;2022-12-13T20:45:00;100668.94;;;1.70
24714;BMP280;12820;51.580;5.010;2022-12-13T20:50:03;100655.69;;;1.68
24714;BMP280;12820;51.580;5.010;2022-12-13T20:55:06;100660.59;;;1.66
24714;BMP280;12820;51.580;5.010;2022-12-13T21:00:09;100659.72;;;1.63
24714;BMP280;12820;51.580;5.010;2022-12-13T21:05:11;100648.16;;;1.62
24714;BMP280;12820;51.580;5.010;2022-12-13T21:10:21;100646.50;;;1.61
24714;BMP280;12820;51.580;5.010;2022-12-13T21:15:23;100639.00;;;1.58
24714;BMP280;12820;51.580;5.010;2022-12-13T21:20:25;100629.91;;;1.57
24714;BMP280;12820;51.580;5.010;2022-12-13T21:25:28;100634.84;;;1.56
24714;BMP280;12820;51.580;5.010;2022-12-13T21:30:30;100624.91;;;1.54
24714;BMP280;12820;51.580;5.010;2022-12-13T21:35:32;100622.38;;;1.53
24714;BMP280;12820;51.580;5.010;2022-12-13T21:40:34;100613.31;;;1.53
24714;BMP280;12820;51.580;5.010;2022-12-13T21:45:36;100590.19;;;1.51
24714;BMP280;12820;51.580;5.010;2022-12-13T21:50:39;100585.22;;;1.50
24714;BMP280;12820;51.580;5.010;2022-12-13T21:55:41;100571.16;;;1.49
24714;BMP280;12820;51.580;5.010;2022-12-13T22:00:49;100577.75;;;1.48
24714;BMP280;12820;51.580;5.010;2022-12-13T22:05:51;100590.13;;;1.48
24714;BMP280;12820;51.580;5.010;2022-12-13T22:10:53;100572.78;;;1.48
24714;BMP280;12820;51.580;5.010;2022-12-13T22:16:21;100567.84;;;1.47
24714;BMP280;12820;51.580;5.010;2022-12-13T22:21:24;100562.03;;;1.46
24714;BMP280;12820;51.580;5.010;2022-12-13T22:26:26;100556.25;;;1.46
24714;BMP280;12820;51.580;5.010;2022-12-13T22:31:28;100557.06;;;1.45
24714;BMP280;12820;51.580;5.010;2022-12-13T22:36:31;100549.63;;;1.45
24714;BMP280;12820;51.580;5.010;2022-12-13T22:41:33;100560.38;;;1.45
24714;BMP280;12820;51.580;5.010;2022-12-13T22:46:35;100572.72;;;1.44
24714;BMP280;12820;51.580;5.010;2022-12-13T22:51:38;100570.19;;;1.42
24714;BMP280;12820;51.580;5.010;2022-12-13T22:56:40;100575.16;;;1.42
24714;BMP280;12820;51.580;5.010;2022-12-13T23:01:42;100568.56;;;1.42
24714;BMP280;12820;51.580;5.010;2022-12-13T23:06:48;100567.69;;;1.40
24714;BMP280;12820;51.580;5.010;2022-12-13T23:11:51;100560.28;;;1.41
24714;BMP280;12820;51.580;5.010;2022-12-13T23:17:11;100556.94;;;1.39
24714;BMP280;12820;51.580;5.010;2022-12-13T23:22:13;100558.63;;;1.40
24714;BMP280;12820;51.580;5.010;2022-12-13T23:27:18;100543.72;;;1.39
24714;BMP280;12820;51.580;5.010;2022-12-13T23:32:20;100527.28;;;1.41
24714;BMP280;12820;51.580;5.010;2022-12-13T23:37:22;100523.16;;;1.41
24714;BMP280;12820;51.580;5.010;2022-12-13T23:42:27;100510.75;;;1.40
24714;BMP280;12820;51.580;5.010;2022-12-13T23:47:30;100513.25;;;1.41
24714;BMP280;12820;51.580;5.010;2022-12-13T23:52:32;100512.47;;;1.42
24714;BMP280;12820;51.580;5.010;2022-12-13T23:57:34;100502.56;;;1.42
